createdAt,value
2019-05-10T00:00:08.179Z,3.93
2019-05-10T00:02:52.308Z,4.40
2019-05-10T00:05:36.829Z,3.13
2019-05-10T00:08:21.021Z,6.07
2019-05-10T00:10:51.482Z,3.20
2019-05-10T00:13:23.743Z,5.33
2019-05-10T00:15:49.540Z,5.97
2019-05-10T00:18:15.334Z,4.17
2019-05-10T00:20:41.119Z,4.60
2019-05-10T00:23:06.901Z,4.30
2019-05-10T00:25:32.713Z,3.70
2019-05-10T00:27:58.502Z,3.47
2019-05-10T00:30:24.305Z,5.77
2019-05-10T00:32:50.097Z,4.33
2019-05-10T00:35:15.893Z,4.17
2019-05-10T00:37:41.683Z,4.57
2019-05-10T00:40:07.695Z,5.47
2019-05-10T00:42:33.482Z,5.50
2019-05-10T00:44:59.285Z,3.87
2019-05-10T00:47:25.080Z,3.50
2019-05-10T00:49:50.882Z,3.83
2019-05-10T00:52:16.671Z,3.50
2019-05-10T00:54:42.500Z,3.47
2019-05-10T00:57:08.275Z,4.37
2019-05-10T00:59:34.263Z,4.70
2019-05-10T01:02:00.053Z,4.00
2019-05-10T01:04:25.847Z,3.40
2019-05-10T01:06:51.655Z,4.23
2019-05-10T01:09:17.450Z,3.87
2019-05-10T01:11:43.258Z,4.40
2019-05-10T01:14:09.049Z,4.80
2019-05-10T01:16:34.842Z,5.33
2019-05-10T01:19:00.624Z,5.50
2019-05-10T01:21:26.425Z,7.73
2019-05-10T01:23:52.213Z,6.37
2019-05-10T01:26:18.021Z,7.00
2019-05-10T01:28:43.873Z,5.40
2019-05-10T01:31:09.810Z,5.37
2019-05-10T01:33:35.588Z,7.07
2019-05-10T01:36:01.377Z,6.17
2019-05-10T01:38:27.167Z,5.63
2019-05-10T01:40:53.086Z,6.07
2019-05-10T01:43:19.377Z,5.40
2019-05-10T01:45:45.156Z,5.47
2019-05-10T01:48:10.966Z,5.30
2019-05-10T01:50:36.747Z,5.47
2019-05-10T01:53:02.545Z,5.10
2019-05-10T01:55:28.327Z,5.50
2019-05-10T01:57:54.138Z,5.20
2019-05-10T02:00:20.129Z,5.57
2019-05-10T02:02:45.923Z,5.30
2019-05-10T02:05:12.308Z,5.10
2019-05-10T02:07:38.105Z,7.37
2019-05-10T02:10:06.412Z,5.60
2019-05-10T02:12:32.203Z,5.50
2019-05-10T02:14:57.999Z,5.80
2019-05-10T02:17:23.793Z,5.30
2019-05-10T02:19:49.579Z,6.93
2019-05-10T02:22:15.413Z,5.60
2019-05-10T02:24:41.187Z,5.80
2019-05-10T02:27:06.969Z,7.40
2019-05-10T02:29:32.914Z,6.00
2019-05-10T02:31:58.641Z,6.50
2019-05-10T02:34:24.434Z,7.37
2019-05-10T02:36:50.215Z,7.07
2019-05-10T02:39:16.008Z,6.60
2019-05-10T02:41:41.802Z,7.30
2019-05-10T02:44:07.598Z,7.33
2019-05-10T02:46:33.393Z,8.53
2019-05-10T02:48:59.178Z,8.70
2019-05-10T02:51:24.965Z,8.47
2019-05-10T02:53:50.766Z,10.07
2019-05-10T02:56:29.826Z,8.93
2019-05-10T02:58:45.150Z,9.03
2019-05-10T03:01:12.367Z,8.83
2019-05-10T03:03:38.775Z,9.80
2019-05-10T03:06:04.561Z,10.67
2019-05-10T03:08:43.241Z,10.33
2019-05-10T03:11:10.024Z,11.80
2019-05-10T03:13:36.126Z,11.43
2019-05-10T03:16:02.218Z,12.17
2019-05-10T03:18:29.504Z,12.90
2019-05-10T03:20:58.295Z,12.83
2019-05-10T03:23:24.677Z,14.27
2019-05-10T03:25:50.475Z,11.73
2019-05-10T03:28:16.271Z,12.30
2019-05-10T03:30:42.058Z,14.40
2019-05-10T03:33:07.841Z,13.60
2019-05-10T03:35:33.639Z,13.70
2019-05-10T03:37:59.427Z,15.37
2019-05-10T03:40:25.231Z,12.60
2019-05-10T03:42:51.013Z,15.67
2019-05-10T03:45:17.003Z,14.53
2019-05-10T03:47:42.783Z,13.23
2019-05-10T03:50:08.943Z,14.40
2019-05-10T03:52:34.749Z,13.63
2019-05-10T03:55:00.537Z,14.23
2019-05-10T03:57:26.315Z,15.73
2019-05-10T03:59:52.134Z,15.57
2019-05-10T04:02:17.913Z,15.27
2019-05-10T04:04:43.721Z,15.57
2019-05-10T04:07:09.499Z,16.90
2019-05-10T04:09:35.282Z,17.70
2019-05-10T04:12:01.088Z,18.07
2019-05-10T04:14:26.879Z,18.47
2019-05-10T04:16:52.668Z,17.93
2019-05-10T04:19:18.454Z,18.30
2019-05-10T04:21:44.253Z,18.43
2019-05-10T04:24:10.044Z,19.30
2019-05-10T04:26:35.843Z,17.53
2019-05-10T04:29:01.640Z,19.97
2019-05-10T04:31:27.421Z,19.03
2019-05-10T04:33:53.213Z,22.07
2019-05-10T04:36:19.016Z,23.20
2019-05-10T04:38:44.806Z,21.33
2019-05-10T04:41:10.621Z,19.57
2019-05-10T04:43:37.110Z,24.03
2019-05-10T04:46:02.907Z,20.47
2019-05-10T04:48:28.682Z,23.97
2019-05-10T04:50:54.485Z,22.17
2019-05-10T04:53:20.255Z,19.67
2019-05-10T04:55:46.062Z,21.57
2019-05-10T04:58:11.841Z,19.70
2019-05-10T05:00:37.739Z,22.03
2019-05-10T05:03:03.546Z,20.70
2019-05-10T05:05:29.329Z,21.80
2019-05-10T05:07:55.131Z,21.73
2019-05-10T05:10:20.928Z,30.03
2019-05-10T05:12:46.721Z,20.03
2019-05-10T05:15:12.698Z,19.67
2019-05-10T05:17:38.501Z,18.17
2019-05-10T05:20:04.496Z,20.10
2019-05-10T05:22:30.294Z,22.50
2019-05-10T05:25:01.306Z,20.70
2019-05-10T05:27:23.795Z,21.40
2019-05-10T05:29:49.564Z,21.37
2019-05-10T05:32:15.364Z,23.43
2019-05-10T05:34:41.149Z,20.07
2019-05-10T05:37:06.938Z,21.13
2019-05-10T05:39:32.828Z,22.73
2019-05-10T05:41:58.606Z,24.43
2019-05-10T05:44:26.130Z,25.43
2019-05-10T05:46:52.083Z,24.33
2019-05-10T05:49:17.883Z,23.73
2019-05-10T05:51:43.663Z,22.17
2019-05-10T05:54:09.545Z,22.63
2019-05-10T05:56:35.366Z,22.40
2019-05-10T05:59:01.170Z,22.70
2019-05-10T06:01:29.531Z,19.50
2019-05-10T06:03:54.676Z,26.43
2019-05-10T06:06:23.517Z,22.93
2019-05-10T06:08:48.155Z,25.07
2019-05-10T06:11:13.945Z,22.13
2019-05-10T06:13:39.733Z,20.93
2019-05-10T06:16:06.719Z,24.30
2019-05-10T06:18:33.224Z,26.20
2019-05-10T06:20:59.027Z,26.67
2019-05-10T06:23:29.204Z,23.57
2019-05-10T06:25:52.513Z,21.97
2019-05-10T06:28:28.609Z,26.70
2019-05-10T06:30:46.177Z,22.40
2019-05-10T06:33:13.230Z,20.50
2019-05-10T06:35:39.233Z,27.00
2019-05-10T06:38:05.015Z,24.17
2019-05-10T06:40:35.543Z,25.07
2019-05-10T06:42:58.507Z,24.00
2019-05-10T06:45:24.293Z,24.40
2019-05-10T06:47:53.310Z,30.57
2019-05-10T06:50:28.994Z,24.83
2019-05-10T06:52:45.860Z,23.53
2019-05-10T06:55:11.678Z,21.33
2019-05-10T06:57:37.468Z,24.23
2019-05-10T07:00:07.812Z,24.07
2019-05-10T07:02:33.909Z,22.70
2019-05-10T07:04:59.692Z,20.13
2019-05-10T07:07:42.595Z,17.40
2019-05-10T07:10:10.007Z,24.83
2019-05-10T07:12:20.923Z,21.77
2019-05-10T07:14:46.939Z,22.80
2019-05-10T07:17:12.795Z,24.20
2019-05-10T07:19:41.983Z,22.50
2019-05-10T07:22:06.279Z,22.00
2019-05-10T07:24:32.061Z,17.77
2019-05-10T07:27:02.413Z,17.83
2019-05-10T07:29:29.969Z,17.00
2019-05-10T07:31:53.267Z,19.20
2019-05-10T07:34:19.050Z,13.67
2019-05-10T07:36:44.845Z,16.90
2019-05-10T07:39:10.861Z,17.83
2019-05-10T07:41:36.745Z,14.43
2019-05-10T07:44:08.118Z,13.03
2019-05-10T07:46:30.244Z,14.60
2019-05-10T07:48:56.043Z,15.43
2019-05-10T07:51:22.755Z,12.20
2019-05-10T07:53:49.539Z,12.80
2019-05-10T07:56:15.342Z,12.83
2019-05-10T07:58:43.190Z,13.50
2019-05-10T08:01:08.872Z,12.17
2019-05-10T08:03:35.611Z,13.57
2019-05-10T08:06:02.361Z,13.90
2019-05-10T08:08:29.606Z,11.17
2019-05-10T08:10:55.543Z,12.40
2019-05-10T08:13:25.072Z,13.13
2019-05-10T08:15:49.139Z,9.13
2019-05-10T08:18:15.356Z,10.67
2019-05-10T08:20:53.295Z,11.63
2019-05-10T08:23:12.887Z,11.00
2019-05-10T08:25:43.936Z,8.40
2019-05-10T08:28:05.726Z,10.90
2019-05-10T08:30:34.512Z,8.07
2019-05-10T08:33:09.128Z,8.70
2019-05-10T08:35:27.992Z,9.67
2019-05-10T08:37:53.794Z,10.10
2019-05-10T08:40:24.541Z,11.60
2019-05-10T08:42:54.264Z,9.33
2019-05-10T08:45:14.958Z,10.00
2019-05-10T08:47:42.647Z,8.73
2019-05-10T08:50:20.561Z,7.17
2019-05-10T08:52:36.171Z,8.40
2019-05-10T08:55:04.789Z,7.73
2019-05-10T08:57:34.782Z,9.47
2019-05-10T09:00:06.450Z,7.67
2019-05-10T09:02:29.295Z,7.33
2019-05-10T09:04:53.617Z,6.03
2019-05-10T09:07:19.403Z,5.43
2019-05-10T09:09:49.665Z,4.83
2019-05-10T09:12:12.970Z,7.07
2019-05-10T09:14:38.761Z,3.80
2019-05-10T09:17:04.692Z,3.80
2019-05-10T09:19:39.615Z,4.53
2019-05-10T09:21:58.231Z,4.00
2019-05-10T09:24:24.027Z,5.63
2019-05-10T09:26:54.865Z,3.73
2019-05-10T09:29:17.519Z,3.10
2019-05-10T09:31:45.944Z,4.97
2019-05-10T09:34:12.247Z,2.63
2019-05-10T09:36:38.087Z,3.87
2019-05-10T09:39:09.235Z,2.30
2019-05-10T09:41:36.672Z,3.80
2019-05-10T09:44:02.841Z,2.87
2019-05-10T09:46:28.126Z,4.50
2019-05-10T09:49:04.614Z,6.30
2019-05-10T09:51:25.599Z,3.27
2019-05-10T09:53:49.289Z,4.90
2019-05-10T09:56:17.361Z,3.77
2019-05-10T09:58:42.767Z,4.77
2019-05-10T10:01:17.735Z,4.53
2019-05-10T10:03:43.234Z,3.13
2019-05-10T10:06:07.609Z,6.40
2019-05-10T10:08:31.655Z,4.80
2019-05-10T10:11:01.217Z,4.50
2019-05-10T10:13:36.849Z,5.97
2019-05-10T10:15:52.836Z,4.33
2019-05-10T10:18:25.017Z,4.50
2019-05-10T10:20:48.069Z,5.03
2019-05-10T10:23:14.031Z,2.67
2019-05-10T10:25:40.742Z,3.13
2019-05-10T10:28:16.747Z,3.80
2019-05-10T10:30:37.310Z,4.30
2019-05-10T10:33:05.858Z,6.17
2019-05-10T10:35:30.625Z,3.60
2019-05-10T10:37:57.553Z,3.57
2019-05-10T10:40:24.120Z,2.60
2019-05-10T10:42:49.896Z,3.77
2019-05-10T10:45:17.341Z,3.13
2019-05-10T10:47:43.185Z,3.40
2019-05-10T10:50:13.429Z,3.80
2019-05-10T10:52:37.635Z,4.37
2019-05-10T10:55:11.053Z,3.00
2019-05-10T10:57:34.670Z,3.47
2019-05-10T11:00:00.465Z,3.23
2019-05-10T11:02:32.629Z,5.13
2019-05-10T11:04:53.937Z,4.87
2019-05-10T11:07:19.736Z,4.67
2019-05-10T11:09:45.513Z,6.40
2019-05-10T11:12:14.783Z,5.50
2019-05-10T11:14:41.037Z,3.47
2019-05-10T11:17:06.699Z,4.87
2019-05-10T11:19:32.484Z,6.83
2019-05-10T11:22:02.179Z,5.40
2019-05-10T11:24:25.967Z,7.40
2019-05-10T11:26:51.864Z,4.27
2019-05-10T11:29:25.558Z,6.83
2019-05-10T11:31:49.967Z,4.57
2019-05-10T11:34:13.022Z,4.73
2019-05-10T11:36:40.596Z,7.23
2019-05-10T11:39:06.599Z,7.30
2019-05-10T11:41:32.392Z,6.33
2019-05-10T11:44:05.493Z,7.03
2019-05-10T11:46:27.924Z,10.47
2019-05-10T11:48:53.550Z,5.23
2019-05-10T11:51:21.112Z,7.13
2019-05-10T11:53:48.996Z,5.17
2019-05-10T11:56:15.518Z,4.53
2019-05-10T12:03:36.866Z,3.57
2019-05-10T12:06:07.833Z,3.50
2019-05-10T12:08:30.540Z,6.00
2019-05-10T12:11:07.596Z,4.03
2019-05-10T12:13:25.145Z,5.17
2019-05-10T12:15:51.959Z,4.20
2019-05-10T12:18:26.353Z,6.33
2019-05-10T12:20:54.773Z,10.57
2019-05-10T12:23:22.602Z,4.00
2019-05-10T12:25:57.346Z,4.63
2019-05-10T12:26:03.776Z,5.90
2019-05-10T12:26:27.365Z,5.13
2019-05-10T12:28:08.830Z,9.17
2019-05-10T12:30:36.960Z,3.13
2019-05-10T12:33:07.945Z,5.47
2019-05-10T12:35:35.552Z,3.77
2019-05-10T12:37:57.993Z,3.43
2019-05-10T12:40:24.368Z,5.17
2019-05-10T12:42:50.274Z,3.67
2019-05-10T12:45:16.252Z,2.83
2019-05-10T12:47:42.045Z,5.13
2019-05-10T12:50:08.125Z,4.17
2019-05-10T12:52:33.931Z,3.30
2019-05-10T12:54:59.720Z,4.97
2019-05-10T12:57:25.510Z,3.77
2019-05-10T12:59:51.333Z,3.67
2019-05-10T13:02:17.125Z,3.67
2019-05-10T13:04:47.340Z,3.77
2019-05-10T13:07:10.700Z,4.07
2019-05-10T13:09:40.589Z,3.03
2019-05-10T13:12:06.313Z,3.97
2019-05-10T13:14:31.931Z,2.27
2019-05-10T13:16:57.687Z,3.33
2019-05-10T13:19:23.581Z,4.73
2019-05-10T13:21:53.773Z,2.67
2019-05-10T13:24:17.059Z,3.73
2019-05-10T13:26:42.845Z,2.33
2019-05-10T13:29:10.512Z,3.40
2019-05-10T13:31:41.767Z,2.27
2019-05-10T13:34:04.027Z,3.50
2019-05-10T13:36:30.647Z,2.57
2019-05-10T13:38:57.505Z,3.53
2019-05-10T13:41:26.295Z,1.90
2019-05-10T13:43:50.988Z,2.20
2019-05-10T13:46:16.789Z,4.17
2019-05-10T13:48:42.592Z,1.97
2019-05-10T13:51:08.396Z,4.83
2019-05-10T13:53:34.190Z,5.80
2019-05-10T13:56:00.124Z,8.63
2019-05-10T13:58:25.998Z,6.90
2019-05-10T14:00:51.807Z,4.13
2019-05-10T14:03:17.596Z,8.63
2019-05-10T14:05:43.390Z,7.70
2019-05-10T14:08:09.166Z,5.33
2019-05-10T14:10:34.955Z,8.00
2019-05-10T14:13:02.619Z,6.47
2019-05-10T14:15:28.532Z,8.43
2019-05-10T14:17:54.329Z,4.93
2019-05-10T14:20:25.359Z,6.40
2019-05-10T14:22:55.647Z,6.77
2019-05-10T14:25:15.599Z,6.03
2019-05-10T14:27:41.395Z,6.23
2019-05-10T14:30:13.519Z,5.00
2019-05-10T14:32:35.210Z,9.77
2019-05-10T14:35:00.987Z,6.67
2019-05-10T14:37:26.782Z,6.40
2019-05-10T14:39:52.570Z,7.27
2019-05-10T14:42:24.206Z,6.37
2019-05-10T14:44:46.060Z,4.80
2019-05-10T14:47:11.853Z,5.13
2019-05-10T14:49:41.994Z,7.73
2019-05-10T14:52:05.330Z,7.07
2019-05-10T14:54:43.213Z,7.67
2019-05-10T14:56:58.825Z,9.80
2019-05-10T14:59:24.617Z,7.97
2019-05-10T15:01:50.429Z,6.40
2019-05-10T15:04:20.109Z,7.10
2019-05-10T15:06:43.896Z,5.70
2019-05-10T15:09:20.847Z,6.97
2019-05-10T15:11:37.361Z,6.93
2019-05-10T15:14:03.548Z,6.73
2019-05-10T15:16:30.811Z,9.10
2019-05-10T15:18:56.847Z,11.50
2019-05-10T15:21:22.625Z,7.83
2019-05-10T15:23:48.419Z,8.00
2019-05-10T15:26:14.200Z,9.93
2019-05-10T15:28:42.263Z,7.40
2019-05-10T15:31:07.686Z,11.17
2019-05-10T15:33:33.484Z,12.87
2019-05-10T15:35:59.261Z,7.50
2019-05-10T15:38:25.060Z,11.37
2019-05-10T15:40:50.838Z,8.97
2019-05-10T15:43:18.764Z,8.07
2019-05-10T15:45:45.965Z,8.50
2019-05-10T15:48:12.325Z,6.77
2019-05-10T15:50:40.716Z,10.10
2019-05-10T15:53:05.857Z,8.23
2019-05-10T15:55:31.724Z,8.63
2019-05-10T15:57:58.208Z,8.17
2019-05-10T16:00:25.725Z,7.43
2019-05-10T16:02:53.539Z,5.97
2019-05-10T16:05:25.958Z,7.63
2019-05-10T16:07:51.482Z,9.90
2019-05-10T16:10:14.978Z,8.87
2019-05-10T16:12:43.224Z,9.37
2019-05-10T16:15:13.942Z,7.80
2019-05-10T16:17:36.335Z,8.50
2019-05-10T16:20:03.135Z,7.67
2019-05-10T16:22:30.438Z,11.60
2019-05-10T16:25:00.830Z,11.30
2019-05-10T16:27:24.318Z,6.37
2019-05-10T16:29:50.126Z,7.33
2019-05-10T16:32:16.030Z,10.37
2019-05-10T16:34:41.849Z,12.87
2019-05-10T16:37:07.632Z,6.53
2019-05-10T16:39:33.434Z,7.67
2019-05-10T16:41:59.232Z,8.00
2019-05-10T16:44:25.024Z,8.50
2019-05-10T16:46:50.805Z,9.57
2019-05-10T16:49:17.361Z,5.80
2019-05-10T16:51:47.697Z,7.70
2019-05-10T16:54:13.490Z,7.30
2019-05-10T16:56:38.609Z,8.90
2019-05-10T16:59:04.393Z,8.67
2019-05-10T17:01:33.394Z,10.40
2019-05-10T17:04:00.521Z,11.07
2019-05-10T17:06:25.665Z,12.50
2019-05-10T17:08:51.456Z,12.07
2019-05-10T17:11:17.251Z,11.23
2019-05-10T17:13:43.259Z,17.10
2019-05-10T17:16:11.546Z,7.40
2019-05-10T17:18:36.802Z,11.20
2019-05-10T17:21:02.601Z,9.03
2019-05-10T17:23:28.380Z,10.60
2019-05-10T17:25:54.169Z,9.00
2019-05-10T17:28:19.952Z,9.57
2019-05-10T17:30:45.758Z,12.17
2019-05-10T17:33:11.560Z,12.33
2019-05-10T17:35:42.085Z,9.13
2019-05-10T17:38:07.854Z,7.70
2019-05-10T17:40:32.733Z,8.60
2019-05-10T17:42:58.516Z,8.10
2019-05-10T17:45:24.332Z,6.03
2019-05-10T17:47:50.116Z,7.70
2019-05-10T17:50:16.002Z,8.17
2019-05-10T17:52:41.787Z,8.93
2019-05-10T17:55:11.031Z,6.87
2019-05-10T17:57:35.269Z,5.93
2019-05-10T18:00:01.558Z,7.43
2019-05-10T18:02:27.462Z,8.43
2019-05-10T18:04:53.247Z,6.80
2019-05-10T18:07:19.044Z,6.63
2019-05-10T18:09:44.922Z,10.73
2019-05-10T18:12:15.639Z,8.10
2019-05-10T18:14:38.507Z,8.43
2019-05-10T18:17:07.107Z,6.57
2019-05-10T18:19:31.990Z,9.50
2019-05-10T18:22:00.846Z,7.70
2019-05-10T18:24:30.245Z,7.73
2019-05-10T18:26:53.173Z,10.63
2019-05-10T18:29:18.953Z,8.67
2019-05-10T18:31:54.694Z,9.40
2019-05-10T18:34:12.451Z,7.07
2019-05-10T18:36:50.954Z,8.53
2019-05-10T18:39:08.937Z,9.43
2019-05-10T18:41:34.729Z,6.23
2019-05-10T18:44:00.528Z,8.40
2019-05-10T18:46:26.307Z,6.10
2019-05-10T18:48:52.112Z,7.63
2019-05-10T18:51:24.134Z,7.57
2019-05-10T18:53:45.605Z,7.03
2019-05-10T18:56:11.402Z,5.30
2019-05-10T18:58:37.188Z,10.00
2019-05-10T19:01:03.202Z,7.60
2019-05-10T19:03:33.624Z,9.00
2019-05-10T19:05:56.832Z,10.83
2019-05-10T19:08:22.634Z,5.17
2019-05-10T19:10:48.413Z,9.80
2019-05-10T19:13:14.385Z,7.27
2019-05-10T19:15:40.609Z,10.83
2019-05-10T19:18:06.410Z,7.10
2019-05-10T19:20:32.192Z,5.83
2019-05-10T19:22:57.988Z,7.30
2019-05-10T19:25:23.789Z,7.10
2019-05-10T19:27:50.905Z,9.00
2019-05-10T19:30:20.145Z,11.33
2019-05-10T19:32:44.766Z,12.60
2019-05-10T19:35:10.573Z,8.63
2019-05-10T19:37:36.362Z,11.00
2019-05-10T19:40:04.848Z,10.00
2019-05-10T19:42:31.753Z,12.07
2019-05-10T19:44:57.874Z,7.30
2019-05-10T19:47:23.669Z,9.20
2019-05-10T19:49:51.514Z,9.97
2019-05-10T19:52:21.215Z,8.97
2019-05-10T19:54:44.962Z,7.53
2019-05-10T19:57:16.227Z,11.20
2019-05-10T19:59:38.494Z,12.30
2019-05-10T20:02:04.270Z,10.80
2019-05-10T20:04:30.197Z,8.10
2019-05-10T20:06:56.050Z,10.53
2019-05-10T20:09:21.848Z,8.20
2019-05-10T20:11:47.624Z,9.27
2019-05-10T20:14:13.420Z,11.00
2019-05-10T20:16:51.973Z,11.57
2019-05-10T20:19:09.167Z,12.50
2019-05-10T20:21:34.603Z,12.73
2019-05-10T20:24:00.383Z,10.23
2019-05-10T20:26:26.225Z,13.30
2019-05-10T20:28:52.007Z,15.20
2019-05-10T20:31:17.803Z,15.50
2019-05-10T20:33:43.588Z,13.17
2019-05-10T20:36:09.383Z,10.87
2019-05-10T20:38:35.168Z,14.63
2019-05-10T20:41:00.975Z,13.73
2019-05-10T20:43:26.757Z,14.43
2019-05-10T20:45:52.553Z,16.10
2019-05-10T20:48:18.366Z,11.80
2019-05-10T20:50:44.237Z,12.77
2019-05-10T20:53:10.124Z,16.43
2019-05-10T20:55:35.909Z,16.70
2019-05-10T20:58:01.710Z,15.23
2019-05-10T21:00:27.497Z,13.73
2019-05-10T21:02:53.332Z,8.97
2019-05-10T21:05:19.088Z,11.90
2019-05-10T21:07:44.886Z,10.40
2019-05-10T21:10:10.869Z,7.67
2019-05-10T21:12:36.669Z,12.63
2019-05-10T21:15:04.849Z,10.50
2019-05-10T21:17:30.647Z,13.30
2019-05-10T21:19:56.435Z,8.93
2019-05-10T21:22:22.261Z,7.47
2019-05-10T21:24:48.101Z,9.40
2019-05-10T21:27:13.943Z,11.27
2019-05-10T21:29:39.760Z,9.57
2019-05-10T21:32:05.867Z,13.27
2019-05-10T21:34:31.984Z,18.17
2019-05-10T21:36:57.774Z,16.30
2019-05-10T21:39:23.557Z,19.73
2019-05-10T21:41:49.368Z,21.27
2019-05-10T21:44:15.149Z,13.03
2019-05-10T21:46:44.210Z,12.33
2019-05-10T21:49:11.344Z,16.40
2019-05-10T21:51:37.223Z,16.50
2019-05-10T21:54:03.010Z,16.67
2019-05-10T21:56:29.477Z,12.30
2019-05-10T21:58:55.769Z,8.97
2019-05-10T22:01:21.897Z,8.57
2019-05-10T22:03:47.698Z,8.97
2019-05-10T22:06:13.585Z,10.27
2019-05-10T22:08:49.111Z,8.47
2019-05-10T22:11:07.066Z,8.80
2019-05-10T22:13:32.867Z,8.30
2019-05-10T22:15:58.646Z,6.73
2019-05-10T22:18:24.468Z,8.83
2019-05-10T22:20:50.245Z,8.90
2019-05-10T22:23:16.090Z,9.23
2019-05-10T22:25:41.875Z,9.57
2019-05-10T22:28:12.032Z,7.87
2019-05-10T22:30:37.908Z,7.70
2019-05-10T22:33:04.076Z,8.63
2019-05-10T22:35:30.071Z,9.80
2019-05-10T22:37:56.451Z,10.50
2019-05-10T22:40:22.214Z,8.83
2019-05-10T22:42:47.999Z,11.60
2019-05-10T22:45:14.362Z,11.53
2019-05-10T22:47:40.146Z,11.17
2019-05-10T22:50:06.162Z,9.33
2019-05-10T22:52:31.934Z,11.60
2019-05-10T22:55:00.422Z,8.10
2019-05-10T22:57:25.407Z,8.63
2019-05-10T22:59:51.201Z,8.30
2019-05-10T23:02:16.990Z,6.97
2019-05-10T23:04:42.784Z,10.83
2019-05-10T23:07:08.562Z,14.17
2019-05-10T23:09:34.369Z,8.93
2019-05-10T23:12:00.149Z,8.63
2019-05-10T23:14:25.938Z,13.33
2019-05-10T23:16:51.729Z,9.80
2019-05-10T23:19:17.511Z,9.43
2019-05-10T23:21:43.293Z,9.87
2019-05-10T23:24:10.990Z,9.27
2019-05-10T23:26:36.778Z,12.53
2019-05-10T23:29:02.675Z,10.60
2019-05-10T23:31:28.453Z,11.73
2019-05-10T23:33:54.249Z,9.33
2019-05-10T23:36:20.038Z,9.47
2019-05-10T23:38:45.818Z,9.70
2019-05-10T23:41:11.621Z,7.40
2019-05-10T23:43:37.400Z,11.07
2019-05-10T23:46:03.204Z,7.53
2019-05-10T23:48:28.987Z,8.57
2019-05-10T23:50:54.777Z,9.27
2019-05-10T23:53:20.559Z,7.80
2019-05-10T23:55:46.353Z,8.83
2019-05-10T23:58:12.138Z,11.27
